Time;durP1;ratioP1;P1;durP2;ratioP2;P2;SDS_P1;SDS_P2;PMS_P1;PMS_P2;Temp;Humidity;BMP_temperature;BMP_pressure;BME280_temperature;BME280_humidity;BME280_pressure;Samples;Min_cycle;Max_cycle;Signal;HPM_P1;HPM_P2
2023/05/04 00:02:20;;;;;;;5.57;5.10;;;;;;;;;;5054628;28;20831;-75
2023/05/04 00:04:50;;;;;;;5.93;5.40;;;;;;;;;;5051675;28;20484;-76
2023/05/04 00:07:35;;;;;;;6.17;5.40;;;;;;;;;;5051177;28;20469;-77
2023/05/04 00:10:13;;;;;;;5.90;5.30;;;;;;;;;;5051400;28;20449;-78
2023/05/04 00:12:59;;;;;;;7.23;5.17;;;;;;;;;;5054004;28;20444;-77
2023/05/04 00:15:30;;;;;;;7.03;6.23;;;;;;;;;;5054823;28;20452;-77
2023/05/04 00:18:01;;;;;;;6.07;5.50;;;;;;;;;;5054400;28;20489;-76
2023/05/04 00:20:31;;;;;;;8.47;5.87;;;;;;;;;;5055140;28;20536;-76
2023/05/04 00:23:02;;;;;;;6.53;5.93;;;;;;;;;;5054681;28;20411;-76
2023/05/04 00:25:31;;;;;;;6.00;5.50;;;;;;;;;;5054084;28;20438;-76
2023/05/04 00:28:01;;;;;;;6.60;5.97;;;;;;;;;;5053740;28;20458;-76
2023/05/04 00:30:32;;;;;;;6.67;5.97;;;;;;;;;;5054199;28;20511;-77
2023/05/04 00:33:00;;;;;;;7.10;6.40;;;;;;;;;;5053031;28;20464;-79
2023/05/04 00:35:31;;;;;;;6.10;5.50;;;;;;;;;;5053715;28;20464;-76
2023/05/04 00:38:12;;;;;;;5.63;5.03;;;;;;;;;;5053214;28;20493;-76
2023/05/04 00:40:44;;;;;;;6.60;5.63;;;;;;;;;;5054838;28;20457;-76
2023/05/04 00:43:19;;;;;;;6.30;5.70;;;;;;;;;;5054365;28;21005;-76
2023/05/04 00:45:51;;;;;;;5.73;5.33;;;;;;;;;;5054005;28;20473;-77
2023/05/04 00:48:44;;;;;;;6.07;5.10;;;;;;;;;;5055841;28;20485;-78
2023/05/04 00:51:18;;;;;;;6.73;6.10;;;;;;;;;;5054718;28;20452;-76
2023/05/04 00:53:54;;;;;;;7.03;6.33;;;;;;;;;;5053330;28;20433;-76
2023/05/04 00:56:27;;;;;;;6.90;6.10;;;;;;;;;;5053678;28;20503;-77
2023/05/04 00:58:57;;;;;;;6.57;5.97;;;;;;;;;;5053919;28;20499;-77
2023/05/04 01:01:36;;;;;;;7.13;6.50;;;;;;;;;;5051266;28;20450;-77
2023/05/04 01:07:02;;;;;;;6.50;5.90;;;;;;;;;;5051940;28;20432;-77
2023/05/04 01:09:40;;;;;;;6.10;5.60;;;;;;;;;;5051159;28;20528;-77
2023/05/04 01:12:24;;;;;;;7.17;6.40;;;;;;;;;;5052710;28;20495;-77
2023/05/04 01:15:01;;;;;;;6.77;6.17;;;;;;;;;;5052162;28;20476;-76
2023/05/04 01:17:46;;;;;;;6.77;6.17;;;;;;;;;;5053084;28;20473;-77
2023/05/04 01:20:14;;;;;;;6.80;6.30;;;;;;;;;;5054470;28;20449;-75
2023/05/04 01:22:57;;;;;;;7.03;6.43;;;;;;;;;;5053558;28;20453;-76
2023/05/04 01:28:26;;;;;;;8.23;6.33;;;;;;;;;;5044785;28;20457;-76
2023/05/04 01:31:26;;;;;;;7.00;6.30;;;;;;;;;;5057053;28;20448;-76
2023/05/04 01:34:00;;;;;;;7.03;6.43;;;;;;;;;;5058337;28;20438;-76
2023/05/04 01:42:20;;;;;;;6.67;6.13;;;;;;;;;;5060673;28;20434;-75
2023/05/04 01:44:55;;;;;;;7.00;6.40;;;;;;;;;;5057883;28;20456;-77
2023/05/04 01:47:28;;;;;;;7.27;6.57;;;;;;;;;;5056449;28;20459;-78
2023/05/04 01:50:02;;;;;;;7.70;6.90;;;;;;;;;;5055927;28;20454;-78
2023/05/04 01:52:45;;;;;;;6.80;6.10;;;;;;;;;;5055026;28;20452;-77
2023/05/04 01:55:27;;;;;;;9.00;7.53;;;;;;;;;;5055689;28;20457;-76
2023/05/04 01:58:04;;;;;;;7.80;7.10;;;;;;;;;;5055316;28;20504;-77
2023/05/04 02:00:51;;;;;;;7.97;6.77;;;;;;;;;;5056366;28;20451;-79
2023/05/04 02:03:30;;;;;;;7.10;6.40;;;;;;;;;;5056465;28;20496;-77
2023/05/04 02:06:03;;;;;;;7.83;6.57;;;;;;;;;;5055639;28;20453;-76
2023/05/04 02:08:34;;;;;;;9.40;8.50;;;;;;;;;;5055018;28;20523;-77
2023/05/04 02:11:09;;;;;;;8.50;7.37;;;;;;;;;;5055480;28;20453;-77
2023/05/04 02:13:41;;;;;;;7.90;7.17;;;;;;;;;;5055685;28;20448;-77
2023/05/04 02:16:09;;;;;;;8.57;7.77;;;;;;;;;;5056079;28;20458;-76
2023/05/04 02:18:37;;;;;;;8.20;7.40;;;;;;;;;;5055967;28;20482;-77
2023/05/04 02:21:13;;;;;;;7.87;7.20;;;;;;;;;;5056810;28;20452;-78
2023/05/04 02:23:44;;;;;;;8.40;6.70;;;;;;;;;;5056826;28;20457;-77
2023/05/04 02:26:19;;;;;;;8.10;7.30;;;;;;;;;;5056825;28;20479;-77
2023/05/04 02:28:47;;;;;;;8.73;7.63;;;;;;;;;;5057065;28;21088;-77
2023/05/04 02:31:24;;;;;;;11.90;8.07;;;;;;;;;;5061586;28;20456;-77
2023/05/04 02:33:57;;;;;;;9.30;7.93;;;;;;;;;;5060778;28;20449;-77
2023/05/04 02:36:31;;;;;;;8.87;8.00;;;;;;;;;;5060459;28;20456;-78
2023/05/04 02:39:02;;;;;;;7.77;7.07;;;;;;;;;;5059123;28;20492;-79
2023/05/04 02:41:36;;;;;;;8.83;8.10;;;;;;;;;;5060566;28;20545;-78
2023/05/04 02:44:14;;;;;;;9.70;7.40;;;;;;;;;;5062850;28;20463;-77
2023/05/04 02:46:56;;;;;;;12.70;7.40;;;;;;;;;;5062271;28;20972;-79
2023/05/04 02:49:35;;;;;;;;;;;;;;;;;;;;;
2023/05/04 02:52:14;;;;;;;9.07;7.63;;;;;;;;;;5058794;28;20441;-78
2023/05/04 02:54:45;;;;;;;8.67;7.33;;;;;;;;;;5055222;28;20515;-77
2023/05/04 02:57:23;;;;;;;8.57;7.73;;;;;;;;;;5055317;28;20957;-77
2023/05/04 02:59:52;;;;;;;8.57;7.83;;;;;;;;;;5055931;28;20902;-77
2023/05/04 03:02:30;;;;;;;8.37;7.67;;;;;;;;;;5055441;28;20515;-76
2023/05/04 03:05:03;;;;;;;9.27;8.50;;;;;;;;;;5055232;28;20977;-77
2023/05/04 03:07:31;;;;;;;7.90;7.20;;;;;;;;;;5054700;28;20426;-78
2023/05/04 03:10:02;;;;;;;8.30;7.60;;;;;;;;;;5054907;28;20894;-76
2023/05/04 03:13:02;;;;;;;8.87;8.07;;;;;;;;;;5055618;28;20505;-77
2023/05/04 03:15:36;;;;;;;10.77;9.77;;;;;;;;;;5054938;28;20485;-77
2023/05/04 03:18:15;;;;;;;11.13;9.07;;;;;;;;;;5054689;28;20525;-78
2023/05/04 03:20:46;;;;;;;9.83;8.90;;;;;;;;;;5055956;28;20511;-77
2023/05/04 03:23:25;;;;;;;10.40;9.30;;;;;;;;;;5054718;28;20947;-77
2023/05/04 03:26:05;;;;;;;9.33;8.43;;;;;;;;;;5055314;28;20426;-78
2023/05/04 03:28:52;;;;;;;9.37;8.43;;;;;;;;;;5055577;28;20473;-77
2023/05/04 03:31:23;;;;;;;10.00;9.00;;;;;;;;;;5055575;28;20540;-77
2023/05/04 03:33:55;;;;;;;9.07;8.27;;;;;;;;;;5054946;28;20460;-76
2023/05/04 03:36:29;;;;;;;9.33;8.40;;;;;;;;;;5056188;28;20461;-77
2023/05/04 03:39:07;;;;;;;9.87;8.50;;;;;;;;;;5058155;28;20480;-77
2023/05/04 03:41:58;;;;;;;10.20;8.60;;;;;;;;;;5056330;28;20453;-77
2023/05/04 03:44:37;;;;;;;11.07;10.00;;;;;;;;;;5049138;28;20452;-77
2023/05/04 03:47:30;;;;;;;11.27;8.53;;;;;;;;;;5057145;28;20457;-77
2023/05/04 03:50:08;;;;;;;10.53;9.47;;;;;;;;;;5061455;28;20947;-79
2023/05/04 03:59:21;;;;;;;;;;;;;;;;;;;;;
2023/05/04 04:02:01;;;;;;;11.00;9.80;;;;;;;;;;5064908;28;20978;-76
2023/05/04 04:04:42;;;;;;;12.23;11.03;;;;;;;;;;5064569;28;20487;-78
2023/05/04 04:07:13;;;;;;;14.80;11.10;;;;;;;;;;5064913;28;20457;-76
2023/05/04 04:09:57;;;;;;;15.77;14.17;;;;;;;;;;5065458;28;20476;-78
2023/05/04 04:12:41;;;;;;;13.13;11.80;;;;;;;;;;5064569;28;20475;-79
2023/05/04 04:15:49;;;;;;;;;;;;;;;;;;;;;
2023/05/04 04:18:28;;;;;;;11.70;10.50;;;;;;;;;;5064178;28;20851;-77
2023/05/04 04:21:23;;;;;;;12.40;11.07;;;;;;;;;;5062449;28;20461;-77
2023/05/04 04:23:55;;;;;;;11.33;10.23;;;;;;;;;;5061334;28;20458;-77
2023/05/04 04:26:28;;;;;;;12.87;11.53;;;;;;;;;;5060529;28;20446;-78
2023/05/04 04:29:06;;;;;;;11.30;10.20;;;;;;;;;;5063167;28;20470;-78
2023/05/04 04:32:10;;;;;;;11.20;10.23;;;;;;;;;;5065146;28;20472;-78
2023/05/04 04:34:54;;;;;;;13.80;12.40;;;;;;;;;;5060158;28;20445;-78
2023/05/04 04:40:21;;;;;;;14.10;12.50;;;;;;;;;;5063916;28;20448;-79
2023/05/04 04:42:52;;;;;;;14.93;13.53;;;;;;;;;;5063616;28;20446;-78
2023/05/04 04:45:25;;;;;;;14.93;13.40;;;;;;;;;;5061662;28;20481;-79
2023/05/04 04:47:55;;;;;;;15.53;12.73;;;;;;;;;;5062078;28;20512;-78
2023/05/04 04:50:27;;;;;;;14.77;13.37;;;;;;;;;;5061486;28;20457;-77
2023/05/04 04:52:56;;;;;;;14.00;12.60;;;;;;;;;;5060731;28;20530;-78
2023/05/04 04:55:53;;;;;;;;;;;;;;;;;;;;;
2023/05/04 04:58:25;;;;;;;14.97;13.37;;;;;;;;;;5065105;28;20486;-78
2023/05/04 05:00:54;;;;;;;15.53;13.87;;;;;;;;;;5064660;28;20453;-77
2023/05/04 05:03:24;;;;;;;14.33;12.33;;;;;;;;;;5061308;28;20464;-80
2023/05/04 05:05:54;;;;;;;14.73;12.40;;;;;;;;;;5065312;28;20445;-77
2023/05/04 05:08:21;;;;;;;17.57;13.20;;;;;;;;;;5064592;28;20481;-79
2023/05/04 05:11:05;;;;;;;13.97;12.67;;;;;;;;;;5064475;28;21271;-79
2023/05/04 05:13:36;;;;;;;12.70;11.47;;;;;;;;;;5066166;28;20475;-78
2023/05/04 05:16:04;;;;;;;14.43;12.90;;;;;;;;;;5067421;28;20458;-78
2023/05/04 05:18:32;;;;;;;15.93;12.77;;;;;;;;;;5067140;28;20469;-78
2023/05/04 05:21:02;;;;;;;13.20;11.80;;;;;;;;;;5068120;28;20442;-77
2023/05/04 05:23:29;;;;;;;14.57;13.00;;;;;;;;;;5069881;28;20476;-78
2023/05/04 05:25:58;;;;;;;13.80;12.37;;;;;;;;;;5063014;28;20480;-77
2023/05/04 05:28:32;;;;;;;12.73;11.60;;;;;;;;;;5056007;28;21050;-78
2023/05/04 05:33:44;;;;;;;13.93;12.47;;;;;;;;;;5055198;28;20446;-78
2023/05/04 05:36:27;;;;;;;13.77;12.47;;;;;;;;;;5060392;28;20449;-78
2023/05/04 05:39:03;;;;;;;14.00;12.70;;;;;;;;;;5062308;28;20477;-78
2023/05/04 05:41:34;;;;;;;14.50;12.87;;;;;;;;;;5063781;28;20476;-79
2023/05/04 05:44:03;;;;;;;15.07;13.63;;;;;;;;;;5062074;28;20437;-77
2023/05/04 05:46:55;;;;;;;;;;;;;;;;;;;;;
2023/05/04 05:49:38;;;;;;;18.53;13.37;;;;;;;;;;5062763;28;20464;-78
2023/05/04 05:52:18;;;;;;;13.60;12.17;;;;;;;;;;5061849;28;20453;-79
2023/05/04 05:55:01;;;;;;;;;;;;;;;;;;;;;
2023/05/04 05:57:33;;;;;;;19.87;12.70;;;;;;;;;;5056236;28;20438;-78
2023/05/04 06:00:08;;;;;;;14.13;12.63;;;;;;;;;;5055709;28;20473;-78
2023/05/04 06:02:38;;;;;;;14.07;12.57;;;;;;;;;;5056073;28;20477;-80
2023/05/04 06:05:11;;;;;;;15.50;13.93;;;;;;;;;;5054540;28;20457;-78
2023/05/04 06:07:47;;;;;;;16.07;13.40;;;;;;;;;;5057368;28;20474;-78
2023/05/04 06:13:19;;;;;;;14.50;12.70;;;;;;;;;;5053911;28;20429;-79
2023/05/04 06:16:01;;;;;;;14.43;13.00;;;;;;;;;;5054012;28;20441;-78
2023/05/04 08:00:48;;;;;;;15.13;13.53;;;;;;;;;;4998208;28;20464;-76
2023/05/04 08:03:24;;;;;;;14.33;13.00;;;;;;;;;;4995609;28;20436;-77
2023/05/04 08:05:54;;;;;;;14.90;13.27;;;;;;;;;;5016894;28;20451;-78
2023/05/04 08:08:37;;;;;;;12.80;11.53;;;;;;;;;;5017551;28;20502;-79
2023/05/04 08:11:16;;;;;;;13.80;12.50;;;;;;;;;;5018944;28;20440;-77
2023/05/04 08:16:38;;;;;;;13.13;11.83;;;;;;;;;;5016285;28;20802;-77
2023/05/04 08:19:11;;;;;;;13.47;12.27;;;;;;;;;;5026302;28;20544;-78
2023/05/04 08:21:45;;;;;;;13.17;12.07;;;;;;;;;;5034291;28;20454;-77
2023/05/04 08:24:16;;;;;;;13.00;11.70;;;;;;;;;;5033817;28;20955;-77
2023/05/04 08:26:51;;;;;;;12.63;11.33;;;;;;;;;;5034653;28;20469;-77
2023/05/04 08:29:21;;;;;;;11.67;10.50;;;;;;;;;;5034306;28;20573;-78
2023/05/04 08:31:53;;;;;;;11.60;10.60;;;;;;;;;;5034660;28;20809;-77
2023/05/04 08:34:41;;;;;;;14.53;13.00;;;;;;;;;;5035619;28;20465;-79
2023/05/04 08:37:27;;;;;;;11.03;10.03;;;;;;;;;;5035137;28;20552;-78
2023/05/04 08:39:56;;;;;;;11.27;10.30;;;;;;;;;;5031654;28;20506;-76
2023/05/04 08:42:49;;;;;;;11.73;10.63;;;;;;;;;;5032343;28;20455;-79
2023/05/04 08:45:18;;;;;;;11.80;10.40;;;;;;;;;;5028283;28;21077;-76
2023/05/04 09:16:38;;;;;;;6.27;5.80;;;;;;;;;;5017173;28;20523;-78
2023/05/04 09:19:17;;;;;;;6.03;5.53;;;;;;;;;;5018814;28;20510;-80
2023/05/04 09:21:50;;;;;;;6.23;5.73;;;;;;;;;;5018552;28;20416;-77
2023/05/04 09:24:28;;;;;;;6.53;6.13;;;;;;;;;;5018637;28;20475;-79
2023/05/04 09:27:11;;;;;;;7.07;6.00;;;;;;;;;;5017744;28;20446;-77
2023/05/04 09:29:39;;;;;;;7.60;6.27;;;;;;;;;;5016519;28;20479;-78
2023/05/04 09:32:28;;;;;;;6.13;5.73;;;;;;;;;;5013619;28;20455;-78
2023/05/04 09:35:12;;;;;;;6.00;5.60;;;;;;;;;;5011098;28;20455;-78
2023/05/04 09:37:50;;;;;;;6.00;5.50;;;;;;;;;;5012018;28;20470;-80
2023/05/04 09:40:53;;;;;;;5.43;5.13;;;;;;;;;;5011537;28;20511;-77
2023/05/04 09:43:26;;;;;;;5.93;5.43;;;;;;;;;;5008564;28;20463;-77
2023/05/04 09:46:29;;;;;;;5.73;5.30;;;;;;;;;;5011624;28;20462;-78
2023/05/04 09:49:12;;;;;;;6.90;6.20;;;;;;;;;;5014334;28;20535;-76
2023/05/04 09:52:01;;;;;;;5.17;4.87;;;;;;;;;;5011478;28;20567;-76
2023/05/04 09:54:33;;;;;;;5.77;5.30;;;;;;;;;;5011475;28;20469;-76
2023/05/04 09:59:59;;;;;;;5.70;5.40;;;;;;;;;;5008179;28;20481;-77
2023/05/04 10:02:36;;;;;;;5.63;5.30;;;;;;;;;;5012445;28;20475;-77
2023/05/04 10:05:29;;;;;;;5.10;4.70;;;;;;;;;;5014056;28;20529;-80
2023/05/04 10:08:02;;;;;;;5.50;4.70;;;;;;;;;;5013512;28;20479;-77
2023/05/04 10:10:39;;;;;;;5.00;4.67;;;;;;;;;;5015312;28;20971;-78
2023/05/04 10:13:11;;;;;;;6.20;5.80;;;;;;;;;;5023245;28;20467;-79
2023/05/04 10:15:59;;;;;;;5.50;5.03;;;;;;;;;;5024331;28;20447;-79
2023/05/04 10:18:38;;;;;;;5.63;4.93;;;;;;;;;;5023201;28;20455;-79
2023/05/04 10:21:22;;;;;;;7.40;5.63;;;;;;;;;;5021977;28;20550;-80
2023/05/04 10:24:14;;;;;;;4.60;4.30;;;;;;;;;;5022882;28;20451;-79
2023/05/04 10:26:50;;;;;;;5.60;5.10;;;;;;;;;;4993784;28;20829;-77
2023/05/04 10:29:32;;;;;;;5.90;5.50;;;;;;;;;;5025188;28;20542;-79
2023/05/04 10:32:00;;;;;;;5.20;4.80;;;;;;;;;;5020117;28;20443;-78
2023/05/04 10:34:37;;;;;;;5.97;5.57;;;;;;;;;;5018194;28;20451;-79
2023/05/04 10:37:27;;;;;;;4.97;4.57;;;;;;;;;;5017808;28;20505;-79
2023/05/04 10:43:01;;;;;;;7.27;4.17;;;;;;;;;;5015491;28;20467;-79
2023/05/04 10:51:53;;;;;;;5.50;5.00;;;;;;;;;;5019478;28;20423;-79
2023/05/04 11:01:00;;;;;;;5.50;5.10;;;;;;;;;;5011907;28;20474;-77
2023/05/04 11:03:40;;;;;;;5.20;4.80;;;;;;;;;;5023976;28;20455;-77
2023/05/04 11:06:22;;;;;;;4.60;4.30;;;;;;;;;;5026686;28;20451;-79
2023/05/04 11:11:49;;;;;;;4.63;4.33;;;;;;;;;;5003944;28;20533;-77
2023/05/04 11:14:41;;;;;;;4.80;4.47;;;;;;;;;;5026876;28;20451;-77
2023/05/04 11:17:15;;;;;;;4.97;4.47;;;;;;;;;;5026267;28;20447;-76
2023/05/04 11:19:54;;;;;;;5.33;4.93;;;;;;;;;;5057446;28;20545;-77
2023/05/04 11:22:28;;;;;;;3.97;3.77;;;;;;;;;;5066911;28;20510;-79
2023/05/04 11:24:56;;;;;;;5.40;4.27;;;;;;;;;;5065446;28;20507;-80
2023/05/04 11:27:25;;;;;;;4.63;4.33;;;;;;;;;;5067222;28;20445;-79
2023/05/04 11:29:56;;;;;;;5.17;4.30;;;;;;;;;;5068112;28;20450;-79
2023/05/04 11:32:41;;;;;;;4.20;4.00;;;;;;;;;;5072010;28;20426;-78
2023/05/04 11:35:28;;;;;;;5.23;4.83;;;;;;;;;;5056434;28;20437;-77
2023/05/04 11:38:01;;;;;;;7.03;4.27;;;;;;;;;;5043546;28;21005;-77
2023/05/04 11:40:29;;;;;;;5.00;4.67;;;;;;;;;;5068876;28;20565;-76
2023/05/04 11:42:58;;;;;;;5.17;4.77;;;;;;;;;;5067543;28;20459;-76
2023/05/04 11:45:31;;;;;;;4.63;4.17;;;;;;;;;;5057728;28;20453;-77
2023/05/04 11:47:59;;;;;;;4.67;4.17;;;;;;;;;;5056751;28;20476;-76
2023/05/04 11:50:30;;;;;;;4.87;4.47;;;;;;;;;;5060570;28;20446;-78
2023/05/04 11:53:10;;;;;;;4.60;4.30;;;;;;;;;;5059412;28;20438;-78
2023/05/04 11:55:41;;;;;;;4.80;4.40;;;;;;;;;;5062025;28;20454;-77
2023/05/04 11:58:15;;;;;;;6.17;4.03;;;;;;;;;;5064320;28;20480;-78
2023/05/04 12:00:48;;;;;;;4.27;3.97;;;;;;;;;;5064089;28;20500;-78
2023/05/04 12:03:19;;;;;;;4.67;4.37;;;;;;;;;;5063124;28;20450;-78
2023/05/04 12:05:50;;;;;;;4.70;4.40;;;;;;;;;;5064455;28;20507;-76
2023/05/04 12:08:33;;;;;;;5.63;5.13;;;;;;;;;;5063400;28;20462;-76
2023/05/04 12:11:23;;;;;;;4.40;4.10;;;;;;;;;;5062068;28;20445;-76
2023/05/04 12:14:04;;;;;;;4.50;4.20;;;;;;;;;;5059930;28;20458;-76
2023/05/04 12:16:33;;;;;;;4.53;4.13;;;;;;;;;;5058916;28;20449;-76
2023/05/04 12:19:19;;;;;;;4.57;4.27;;;;;;;;;;5057676;28;20461;-80
2023/05/04 12:21:51;;;;;;;4.80;4.50;;;;;;;;;;5056133;28;20539;-77
2023/05/04 12:24:38;;;;;;;4.70;4.30;;;;;;;;;;5056907;28;20445;-76
2023/05/04 12:27:18;;;;;;;4.80;4.50;;;;;;;;;;5058596;28;20453;-76
2023/05/04 12:29:49;;;;;;;5.27;4.80;;;;;;;;;;5056668;28;20457;-77
2023/05/04 12:32:18;;;;;;;5.73;5.00;;;;;;;;;;5055300;28;20738;-78
2023/05/04 12:34:47;;;;;;;4.70;4.30;;;;;;;;;;5055162;28;20499;-78
2023/05/04 12:37:21;;;;;;;4.57;4.27;;;;;;;;;;5062038;28;20458;-76
2023/05/04 12:39:54;;;;;;;5.17;4.87;;;;;;;;;;5061748;28;20547;-78
2023/05/04 12:42:27;;;;;;;6.30;5.80;;;;;;;;;;5057849;28;20444;-77
2023/05/04 12:45:02;;;;;;;6.23;5.70;;;;;;;;;;5058092;28;20514;-79
2023/05/04 12:47:36;;;;;;;4.77;4.47;;;;;;;;;;5060812;28;20504;-77
2023/05/04 12:50:05;;;;;;;5.73;5.17;;;;;;;;;;5060922;28;20473;-79
2023/05/04 12:52:35;;;;;;;4.50;4.23;;;;;;;;;;5059389;28;20490;-80
2023/05/04 12:55:09;;;;;;;5.10;4.80;;;;;;;;;;5062216;28;20472;-77
2023/05/04 12:57:44;;;;;;;6.00;5.60;;;;;;;;;;5061748;28;20479;-78
2023/05/04 13:00:18;;;;;;;6.00;5.57;;;;;;;;;;5058079;28;20481;-78
2023/05/04 13:02:51;;;;;;;6.07;5.53;;;;;;;;;;5059586;28;20422;-76
2023/05/04 13:05:28;;;;;;;10.03;9.40;;;;;;;;;;5058568;28;20487;-77
2023/05/04 13:08:02;;;;;;;6.20;5.70;;;;;;;;;;5057695;28;20497;-75
2023/05/04 13:10:36;;;;;;;6.07;5.57;;;;;;;;;;5058029;28;20445;-78
2023/05/04 13:13:05;;;;;;;5.83;5.43;;;;;;;;;;5057465;28;20461;-77
2023/05/04 13:15:33;;;;;;;5.97;5.57;;;;;;;;;;5055739;28;20524;-77
2023/05/04 13:18:07;;;;;;;7.07;6.10;;;;;;;;;;5053525;28;20476;-77
2023/05/04 13:20:39;;;;;;;5.67;5.27;;;;;;;;;;5036674;28;21013;-79
2023/05/04 13:23:10;;;;;;;5.73;4.60;;;;;;;;;;5035431;28;20458;-77
2023/05/04 13:25:51;;;;;;;4.90;4.60;;;;;;;;;;5036094;28;20459;-76
2023/05/04 13:28:28;;;;;;;5.63;5.10;;;;;;;;;;5038047;28;20453;-76
2023/05/04 13:31:01;;;;;;;6.53;6.00;;;;;;;;;;5035807;28;20441;-78
2023/05/04 13:33:33;;;;;;;7.23;6.50;;;;;;;;;;5034652;28;20457;-77
2023/05/04 13:36:06;;;;;;;9.60;5.13;;;;;;;;;;5036171;28;20430;-76
2023/05/04 13:38:34;;;;;;;5.70;5.20;;;;;;;;;;5037234;28;20564;-78
2023/05/04 13:41:11;;;;;;;7.10;6.60;;;;;;;;;;5037334;28;20470;-77
2023/05/04 13:43:40;;;;;;;6.70;6.10;;;;;;;;;;5037635;28;20478;-79
2023/05/04 13:46:10;;;;;;;6.73;6.10;;;;;;;;;;5039042;28;20460;-77
2023/05/04 13:48:50;;;;;;;6.17;5.57;;;;;;;;;;5038044;28;20544;-76
2023/05/04 13:51:25;;;;;;;5.07;4.70;;;;;;;;;;5039280;28;20446;-76
2023/05/04 13:54:06;;;;;;;20.33;6.10;;;;;;;;;;5040349;28;20450;-76
2023/05/04 13:56:53;;;;;;;5.43;3.90;;;;;;;;;;5040762;28;20434;-76
2023/05/04 13:59:24;;;;;;;5.37;4.97;;;;;;;;;;5039774;28;20475;-77
2023/05/04 14:01:56;;;;;;;6.17;5.67;;;;;;;;;;5041949;28;20477;-79
2023/05/04 14:04:31;;;;;;;5.77;5.27;;;;;;;;;;5040007;28;20481;-79
2023/05/04 14:06:59;;;;;;;6.17;5.77;;;;;;;;;;5040636;28;20462;-77
2023/05/04 14:12:14;;;;;;;7.47;6.87;;;;;;;;;;5040316;28;20532;-75
2023/05/04 14:14:51;;;;;;;9.07;6.73;;;;;;;;;;5042705;28;20454;-76
2023/05/04 14:17:25;;;;;;;6.53;6.03;;;;;;;;;;5042721;28;20568;-79
2023/05/04 14:19:57;;;;;;;7.40;6.80;;;;;;;;;;5044112;28;20503;-78
2023/05/04 14:22:26;;;;;;;5.77;5.30;;;;;;;;;;5043423;28;20506;-76
2023/05/04 14:25:04;;;;;;;6.13;5.53;;;;;;;;;;5044766;28;20480;-76
2023/05/04 14:27:47;;;;;;;5.53;5.03;;;;;;;;;;5048671;28;20453;-74
2023/05/04 14:30:17;;;;;;;6.10;5.60;;;;;;;;;;5047587;28;20450;-77
2023/05/04 14:32:51;;;;;;;5.13;4.83;;;;;;;;;;5048084;28;20472;-76
2023/05/04 14:35:20;;;;;;;6.43;5.93;;;;;;;;;;5048310;28;20439;-75
2023/05/04 14:37:50;;;;;;;5.20;4.80;;;;;;;;;;5048577;28;20668;-77
2023/05/04 14:40:19;;;;;;;8.60;5.40;;;;;;;;;;5051491;28;20485;-77
2023/05/04 14:43:02;;;;;;;5.53;5.03;;;;;;;;;;5052922;28;20473;-77
2023/05/04 14:45:42;;;;;;;5.37;4.97;;;;;;;;;;5051497;28;20450;-77
2023/05/04 14:48:14;;;;;;;5.80;5.30;;;;;;;;;;5052172;28;20497;-79
2023/05/04 14:50:44;;;;;;;5.40;4.90;;;;;;;;;;5053148;28;20452;-77
2023/05/04 14:53:16;;;;;;;8.90;8.30;;;;;;;;;;5050688;28;20447;-75
2023/05/04 14:55:47;;;;;;;6.20;5.67;;;;;;;;;;5046831;28;20490;-77
2023/05/04 14:58:18;;;;;;;5.47;5.00;;;;;;;;;;5044735;28;20531;-75
2023/05/04 15:00:46;;;;;;;5.23;4.83;;;;;;;;;;5044023;28;20501;-77
2023/05/04 15:03:24;;;;;;;5.30;4.90;;;;;;;;;;5046273;28;20442;-75
2023/05/04 15:06:21;;;;;;;5.73;5.23;;;;;;;;;;5054248;28;20449;-77
2023/05/04 15:08:59;;;;;;;5.80;5.40;;;;;;;;;;5055243;28;20493;-77
2023/05/04 15:11:38;;;;;;;5.90;5.50;;;;;;;;;;5053982;28;20434;-78
2023/05/04 15:14:18;;;;;;;5.73;5.33;;;;;;;;;;5049654;28;20454;-76
2023/05/04 15:16:55;;;;;;;5.40;5.00;;;;;;;;;;5046918;28;20987;-76
2023/05/04 15:19:25;;;;;;;6.10;5.70;;;;;;;;;;5044585;28;20485;-77
2023/05/04 15:22:24;;;;;;;6.50;5.00;;;;;;;;;;5043140;28;20478;-79
2023/05/04 15:25:11;;;;;;;5.67;5.17;;;;;;;;;;5038003;28;20537;-75
2023/05/04 15:30:59;;;;;;;5.60;5.20;;;;;;;;;;5027869;28;20443;-77
2023/05/04 15:33:48;;;;;;;5.87;5.20;;;;;;;;;;5036198;28;20465;-80
2023/05/04 15:36:22;;;;;;;5.03;4.63;;;;;;;;;;5035809;28;20462;-78
2023/05/04 15:41:51;;;;;;;4.93;4.63;;;;;;;;;;5034436;28;20893;-78
2023/05/04 15:44:35;;;;;;;4.87;4.40;;;;;;;;;;5036193;28;20520;-77
2023/05/04 15:47:16;;;;;;;5.93;4.60;;;;;;;;;;5035337;28;20457;-79
2023/05/04 15:50:00;;;;;;;4.93;4.50;;;;;;;;;;5037091;28;20475;-77
2023/05/04 15:52:45;;;;;;;5.13;4.83;;;;;;;;;;5037088;28;20967;-79
2023/05/04 15:55:25;;;;;;;4.33;4.03;;;;;;;;;;5036631;28;20453;-76
2023/05/04 15:57:54;;;;;;;5.37;4.87;;;;;;;;;;5037212;28;20470;-76
2023/05/04 16:00:33;;;;;;;4.70;4.40;;;;;;;;;;5036923;28;20877;-77
2023/05/04 16:03:17;;;;;;;4.87;4.57;;;;;;;;;;5038590;28;20469;-78
2023/05/04 16:05:54;;;;;;;4.60;4.20;;;;;;;;;;5038047;28;20478;-78
2023/05/04 16:08:33;;;;;;;4.77;4.47;;;;;;;;;;5037171;28;20492;-77
2023/05/04 16:11:12;;;;;;;4.80;4.50;;;;;;;;;;5036500;28;20431;-78
2023/05/04 16:13:50;;;;;;;6.10;5.20;;;;;;;;;;5036204;28;20544;-78
2023/05/04 16:16:22;;;;;;;5.27;4.87;;;;;;;;;;5036740;28;20504;-77
2023/05/04 16:19:25;;;;;;;6.20;5.13;;;;;;;;;;5036667;28;20505;-77
2023/05/04 16:22:08;;;;;;;5.10;4.80;;;;;;;;;;5035749;28;20482;-77
2023/05/04 16:24:46;;;;;;;5.00;4.60;;;;;;;;;;5038558;28;20418;-76
2023/05/04 16:27:17;;;;;;;4.70;4.30;;;;;;;;;;5038460;28;20458;-78
2023/05/04 16:32:39;;;;;;;5.03;4.63;;;;;;;;;;5037929;28;20449;-76
2023/05/04 16:35:28;;;;;;;5.20;4.60;;;;;;;;;;5039918;28;20824;-77
2023/05/04 16:38:14;;;;;;;6.07;5.57;;;;;;;;;;5037899;28;20473;-77
2023/05/04 16:40:58;;;;;;;4.87;4.40;;;;;;;;;;5039947;28;20457;-79
2023/05/04 16:43:33;;;;;;;5.73;5.23;;;;;;;;;;5039311;28;20442;-76
2023/05/04 16:46:03;;;;;;;5.00;4.57;;;;;;;;;;5038781;28;20445;-78
2023/05/04 16:48:38;;;;;;;5.00;4.60;;;;;;;;;;5036543;28;20532;-79
2023/05/04 16:51:19;;;;;;;4.87;4.57;;;;;;;;;;5039712;28;20462;-78
2023/05/04 16:54:08;;;;;;;5.50;5.00;;;;;;;;;;5038251;28;20458;-78
2023/05/04 16:56:43;;;;;;;5.53;5.13;;;;;;;;;;5038895;28;20470;-79
2023/05/04 16:59:18;;;;;;;5.00;4.70;;;;;;;;;;5040243;28;20482;-78
2023/05/04 17:01:49;;;;;;;5.73;5.23;;;;;;;;;;5040804;28;20504;-79
2023/05/04 17:04:27;;;;;;;;;;;;;;;;;;;;;
2023/05/04 17:07:08;;;;;;;5.60;5.20;;;;;;;;;;5043361;28;20958;-79
2023/05/04 17:09:58;;;;;;;5.87;5.27;;;;;;;;;;5039335;28;20574;-77
2023/05/04 17:15:44;;;;;;;5.20;4.80;;;;;;;;;;5005025;28;20455;-79
2023/05/04 17:18:20;;;;;;;5.23;4.87;;;;;;;;;;5044624;28;20471;-78
2023/05/04 17:20:55;;;;;;;9.30;8.50;;;;;;;;;;5045614;28;20411;-78
2023/05/04 17:23:27;;;;;;;5.87;5.20;;;;;;;;;;5044695;28;20446;-79
2023/05/04 17:25:57;;;;;;;5.30;4.80;;;;;;;;;;5046064;28;20473;-79
2023/05/04 17:28:25;;;;;;;5.63;5.20;;;;;;;;;;5044739;28;20459;-79
2023/05/04 17:30:55;;;;;;;9.57;4.90;;;;;;;;;;5046826;28;20454;-79
2023/05/04 17:33:24;;;;;;;5.83;5.40;;;;;;;;;;5045235;28;20494;-80
2023/05/04 17:35:53;;;;;;;6.10;5.53;;;;;;;;;;5045451;28;20446;-77
2023/05/04 17:38:21;;;;;;;5.57;5.07;;;;;;;;;;5046721;28;20466;-79
2023/05/04 17:40:49;;;;;;;5.30;4.80;;;;;;;;;;5046950;28;20466;-77
2023/05/04 17:43:19;;;;;;;7.47;5.13;;;;;;;;;;5046476;28;20482;-78
2023/05/04 17:45:47;;;;;;;5.60;5.20;;;;;;;;;;5044708;28;20481;-78
2023/05/04 17:48:17;;;;;;;7.60;5.73;;;;;;;;;;5046084;28;20497;-78
2023/05/04 17:53:59;;;;;;;6.53;5.67;;;;;;;;;;5007066;28;20452;-77
2023/05/04 17:56:37;;;;;;;6.23;5.73;;;;;;;;;;4984743;28;20544;-79
2023/05/04 18:16:23;;;;;;;6.43;5.90;;;;;;;;;;4834971;29;20547;-79
2023/05/04 18:19:00;;;;;;;5.80;5.30;;;;;;;;;;4870303;29;20483;-76
2023/05/04 18:21:35;;;;;;;5.33;4.93;;;;;;;;;;4965650;29;20481;-79
2023/05/04 18:24:12;;;;;;;6.53;5.93;;;;;;;;;;4984267;28;20483;-77
2023/05/04 18:26:54;;;;;;;5.33;4.93;;;;;;;;;;4997876;28;20448;-78
2023/05/04 18:32:06;;;;;;;6.27;5.67;;;;;;;;;;5056007;28;20461;-79
2023/05/04 18:34:49;;;;;;;7.60;5.93;;;;;;;;;;5058660;28;20445;-79
2023/05/04 18:37:25;;;;;;;6.10;5.50;;;;;;;;;;5059172;28;20456;-79
2023/05/04 18:39:59;;;;;;;5.97;5.47;;;;;;;;;;5057413;28;20528;-78
2023/05/04 18:42:30;;;;;;;6.50;5.80;;;;;;;;;;5055938;28;20491;-77
2023/05/04 18:45:01;;;;;;;6.17;5.63;;;;;;;;;;5059550;28;20454;-77
2023/05/04 18:47:31;;;;;;;5.87;5.37;;;;;;;;;;5059475;28;20481;-77
2023/05/04 18:50:01;;;;;;;5.70;5.20;;;;;;;;;;5059672;28;20504;-77
2023/05/04 18:52:31;;;;;;;5.80;5.30;;;;;;;;;;5061183;28;20526;-78
2023/05/04 18:55:03;;;;;;;6.37;5.30;;;;;;;;;;5059375;28;20460;-78
2023/05/04 18:57:31;;;;;;;7.47;5.20;;;;;;;;;;5059576;28;20457;-77
2023/05/04 18:59:59;;;;;;;5.70;5.30;;;;;;;;;;5059564;28;20500;-78
2023/05/04 19:02:28;;;;;;;6.10;5.60;;;;;;;;;;5058675;28;20501;-77
2023/05/04 19:05:01;;;;;;;6.07;5.10;;;;;;;;;;5057883;28;20474;-78
2023/05/04 19:07:34;;;;;;;7.17;5.40;;;;;;;;;;5059152;28;20446;-80
2023/05/04 19:10:16;;;;;;;;;;;;;;;;;;;;;
2023/05/04 19:12:48;;;;;;;6.60;6.07;;;;;;;;;;5048922;28;20437;-77
2023/05/04 19:15:28;;;;;;;6.30;5.80;;;;;;;;;;5064890;28;20529;-79
2023/05/04 19:17:59;;;;;;;6.10;5.60;;;;;;;;;;5061862;28;20473;-78
2023/05/04 19:23:28;;;;;;;6.80;6.20;;;;;;;;;;5056177;28;20920;-80